Time;durP1;ratioP1;P1;durP2;ratioP2;P2;SDS_P1;SDS_P2;PMS_P1;PMS_P2;Temp;Humidity;BMP_temperature;BMP_pressure;BME280_temperature;BME280_humidity;BME280_pressure;Samples;Min_cycle;Max_cycle;Signal;HPM_P1;HPM_P2
2021/07/20 00:00:48;;;;;;;16.75;9.25;;;;;;;;;;4989886;28;20204;-72
2021/07/20 00:03:14;;;;;;;14.93;9.02;;;;;;;;;;4983308;28;20179;-73
2021/07/20 00:05:39;;;;;;;12.77;8.50;;;;;;;;;;4986504;28;20197;-73
2021/07/20 00:08:05;;;;;;;13.52;8.43;;;;;;;;;;4982793;28;20180;-72
2021/07/20 00:10:30;;;;;;;12.18;9.23;;;;;;;;;;4988472;28;20645;-74
2021/07/20 00:12:56;;;;;;;13.25;8.70;;;;;;;;;;4989086;28;20203;-73
2021/07/20 00:15:21;;;;;;;14.88;8.75;;;;;;;;;;4988658;28;20842;-72
2021/07/20 00:17:48;;;;;;;13.05;7.93;;;;;;;;;;4972250;28;20732;-72
2021/07/20 00:20:15;;;;;;;16.67;9.43;;;;;;;;;;4975241;28;20187;-72
2021/07/20 00:22:40;;;;;;;12.65;8.55;;;;;;;;;;4979436;28;20767;-72
2021/07/20 00:25:06;;;;;;;16.42;9.23;;;;;;;;;;4974888;28;20266;-72
2021/07/20 00:27:31;;;;;;;14.27;9.32;;;;;;;;;;4974951;28;20183;-72
2021/07/20 00:29:56;;;;;;;11.07;8.60;;;;;;;;;;4974674;28;20830;-72
2021/07/20 00:32:21;;;;;;;15.93;9.57;;;;;;;;;;4975803;28;20286;-72
2021/07/20 00:34:47;;;;;;;12.38;8.70;;;;;;;;;;4976583;28;20293;-72
2021/07/20 00:37:12;;;;;;;14.17;9.67;;;;;;;;;;4978351;28;20179;-72
2021/07/20 00:39:37;;;;;;;16.55;8.98;;;;;;;;;;4977387;28;20437;-72
2021/07/20 00:42:03;;;;;;;15.23;9.02;;;;;;;;;;4978921;28;20199;-73
2021/07/20 00:44:28;;;;;;;20.65;9.18;;;;;;;;;;4977779;28;20560;-72
2021/07/20 00:46:53;;;;;;;14.55;8.57;;;;;;;;;;4978503;28;20175;-72
2021/07/20 00:49:20;;;;;;;16.10;9.45;;;;;;;;;;4973806;28;20187;-72
2021/07/20 00:51:45;;;;;;;15.75;9.10;;;;;;;;;;4974546;28;20199;-72
2021/07/20 00:54:10;;;;;;;14.00;8.90;;;;;;;;;;4977062;28;20238;-71
2021/07/20 00:56:36;;;;;;;13.15;8.55;;;;;;;;;;4978196;28;20199;-72
2021/07/20 00:59:01;;;;;;;15.55;9.75;;;;;;;;;;4977384;28;20954;-72
2021/07/20 01:01:26;;;;;;;16.20;9.85;;;;;;;;;;4975736;28;20214;-72
2021/07/20 01:03:53;;;;;;;20.17;10.23;;;;;;;;;;4981337;28;20653;-72
2021/07/20 01:06:19;;;;;;;22.08;16.25;;;;;;;;;;4983692;28;20607;-72
2021/07/20 01:08:44;;;;;;;26.70;16.88;;;;;;;;;;4984802;28;20215;-72
2021/07/20 01:11:10;;;;;;;21.55;15.27;;;;;;;;;;4974608;28;20230;-72
2021/07/20 01:13:36;;;;;;;25.58;17.60;;;;;;;;;;4976607;28;20242;-72
2021/07/20 01:16:01;;;;;;;22.92;17.35;;;;;;;;;;4976668;28;20573;-72
2021/07/20 01:18:27;;;;;;;23.30;17.00;;;;;;;;;;4980530;28;20183;-71
2021/07/20 01:20:52;;;;;;;24.05;16.88;;;;;;;;;;4976919;28;20188;-72
2021/07/20 01:23:24;;;;;;;25.05;18.85;;;;;;;;;;4994645;23;20217;-77
2021/07/20 01:25:50;;;;;;;27.35;19.02;;;;;;;;;;4966776;28;20181;-77
2021/07/20 01:28:18;;;;;;;25.27;19.05;;;;;;;;;;4964074;28;20187;-77
2021/07/20 01:30:44;;;;;;;29.67;18.92;;;;;;;;;;4963421;28;21674;-77
2021/07/20 01:33:10;;;;;;;30.48;20.50;;;;;;;;;;4960281;28;20229;-78
2021/07/20 01:35:35;;;;;;;31.02;21.27;;;;;;;;;;4961362;28;20184;-77
2021/07/20 01:38:02;;;;;;;29.35;19.98;;;;;;;;;;4961073;28;20874;-76
2021/07/20 01:40:27;;;;;;;34.38;21.48;;;;;;;;;;4961389;28;20544;-76
2021/07/20 01:42:53;;;;;;;29.55;19.02;;;;;;;;;;4971482;28;20291;-77
2021/07/20 01:45:18;;;;;;;37.58;22.80;;;;;;;;;;4969364;28;20284;-76
2021/07/20 01:47:44;;;;;;;48.13;26.02;;;;;;;;;;4965596;28;20207;-78
2021/07/20 01:50:10;;;;;;;36.35;23.42;;;;;;;;;;4965526;28;20271;-77
2021/07/20 01:52:36;;;;;;;34.92;23.55;;;;;;;;;;4967448;28;20291;-76
2021/07/20 01:55:01;;;;;;;39.33;25.67;;;;;;;;;;4967945;28;20311;-77
2021/07/20 01:57:26;;;;;;;40.03;24.65;;;;;;;;;;4963222;28;20208;-77
2021/07/20 01:59:53;;;;;;;41.15;27.83;;;;;;;;;;4966212;28;20629;-77
2021/07/20 02:02:30;;;;;;;39.13;26.52;;;;;;;;;;4964940;28;20211;-78
2021/07/20 02:10:09;;;;;;;45.70;28.90;;;;;;;;;;4961441;28;20262;-77
2021/07/20 02:12:39;;;;;;;45.22;29.77;;;;;;;;;;4968028;28;20437;-77
2021/07/20 02:15:05;;;;;;;42.13;26.50;;;;;;;;;;4961850;28;20204;-78
2021/07/20 02:17:31;;;;;;;43.83;25.90;;;;;;;;;;4968950;28;20172;-77
2021/07/20 02:19:58;;;;;;;36.10;24.85;;;;;;;;;;4968268;28;20183;-77
2021/07/20 02:22:24;;;;;;;36.92;23.27;;;;;;;;;;4964563;28;20684;-77
2021/07/20 02:24:52;;;;;;;33.50;22.55;;;;;;;;;;4980912;28;20653;-78
2021/07/20 02:27:18;;;;;;;32.63;19.98;;;;;;;;;;4972366;28;20189;-78
2021/07/20 02:29:44;;;;;;;33.85;20.25;;;;;;;;;;4981318;28;20219;-76
2021/07/20 02:32:09;;;;;;;29.47;20.33;;;;;;;;;;4966376;28;20231;-77
2021/07/20 02:34:36;;;;;;;29.67;18.27;;;;;;;;;;4979071;28;20669;-76
2021/07/20 02:37:02;;;;;;;30.08;18.85;;;;;;;;;;4965639;28;20185;-76
2021/07/20 02:39:28;;;;;;;28.10;16.87;;;;;;;;;;4979664;28;20184;-78
2021/07/20 02:41:54;;;;;;;27.33;16.70;;;;;;;;;;4964836;28;20631;-77
2021/07/20 02:44:22;;;;;;;24.50;15.73;;;;;;;;;;4966644;28;20188;-77
2021/07/20 02:46:47;;;;;;;28.03;15.70;;;;;;;;;;4962762;28;20272;-78
2021/07/20 02:49:13;;;;;;;23.73;14.73;;;;;;;;;;4963656;28;20631;-77
2021/07/20 02:51:39;;;;;;;22.70;14.30;;;;;;;;;;4966245;28;20207;-77
2021/07/20 02:54:05;;;;;;;24.33;13.95;;;;;;;;;;4963179;28;20220;-77
2021/07/20 02:56:31;;;;;;;23.40;13.40;;;;;;;;;;4959333;28;20207;-77
2021/07/20 02:58:59;;;;;;;20.80;13.43;;;;;;;;;;4962311;28;20196;-76
2021/07/20 03:01:26;;;;;;;20.20;13.33;;;;;;;;;;4966204;28;20204;-77
2021/07/20 03:03:51;;;;;;;18.00;12.33;;;;;;;;;;4959757;28;20184;-76
2021/07/20 03:06:16;;;;;;;20.33;12.33;;;;;;;;;;4966819;28;20248;-76
2021/07/20 03:08:43;;;;;;;19.23;12.57;;;;;;;;;;4974363;28;20193;-79
2021/07/20 03:11:10;;;;;;;19.47;11.90;;;;;;;;;;4959656;28;20256;-78
2021/07/20 03:13:37;;;;;;;21.13;12.60;;;;;;;;;;4962831;28;20250;-78
2021/07/20 03:16:04;;;;;;;23.17;12.87;;;;;;;;;;4964507;28;20181;-78
2021/07/20 03:18:30;;;;;;;20.30;12.03;;;;;;;;;;4968352;28;20574;-76
2021/07/20 03:20:57;;;;;;;22.40;12.17;;;;;;;;;;4963288;28;20181;-77
2021/07/20 03:23:23;;;;;;;22.00;13.50;;;;;;;;;;4966609;28;20389;-79
2021/07/20 03:25:49;;;;;;;22.83;13.07;;;;;;;;;;4966228;28;20252;-77
2021/07/20 03:28:15;;;;;;;20.73;12.60;;;;;;;;;;4964864;28;20224;-76
2021/07/20 03:30:40;;;;;;;20.57;11.93;;;;;;;;;;4964519;28;20208;-77
2021/07/20 03:33:06;;;;;;;21.27;12.40;;;;;;;;;;4966021;28;20788;-77
2021/07/20 03:35:31;;;;;;;17.33;10.83;;;;;;;;;;4969545;28;20200;-77
2021/07/20 03:37:57;;;;;;;18.00;11.20;;;;;;;;;;4968650;28;20192;-77
2021/07/20 03:40:24;;;;;;;19.60;12.13;;;;;;;;;;4963365;28;20802;-77
2021/07/20 03:42:49;;;;;;;21.80;11.70;;;;;;;;;;4965528;28;20192;-77
2021/07/20 03:45:14;;;;;;;19.40;11.43;;;;;;;;;;4963958;28;20247;-77
2021/07/20 03:47:41;;;;;;;23.33;13.57;;;;;;;;;;4972606;28;20191;-80
2021/07/20 03:50:08;;;;;;;19.70;11.93;;;;;;;;;;4962098;28;20191;-78
2021/07/20 03:52:34;;;;;;;18.40;11.17;;;;;;;;;;4965176;28;20219;-79
2021/07/20 03:55:00;;;;;;;22.03;12.23;;;;;;;;;;4962644;28;20651;-76
2021/07/20 03:57:26;;;;;;;20.17;11.47;;;;;;;;;;4983798;28;20422;-76
2021/07/20 03:59:53;;;;;;;20.77;12.33;;;;;;;;;;4970904;28;20184;-77
2021/07/20 04:02:21;;;;;;;18.43;10.97;;;;;;;;;;4964221;28;20342;-78
2021/07/20 04:04:48;;;;;;;24.80;12.87;;;;;;;;;;4963575;28;20570;-78
2021/07/20 04:07:20;;;;;;;19.47;12.03;;;;;;;;;;4966144;28;20203;-77
2021/07/20 04:09:45;;;;;;;20.83;12.03;;;;;;;;;;4973576;28;20194;-77
2021/07/20 04:12:13;;;;;;;19.23;11.47;;;;;;;;;;4961612;28;20200;-78
2021/07/20 04:14:38;;;;;;;19.13;11.17;;;;;;;;;;4971687;28;20204;-78
2021/07/20 04:17:04;;;;;;;23.13;12.97;;;;;;;;;;4965207;28;20276;-77
2021/07/20 04:19:29;;;;;;;20.00;11.10;;;;;;;;;;4960672;28;20204;-77
2021/07/20 04:21:55;;;;;;;16.90;10.57;;;;;;;;;;4962910;28;20273;-77
2021/07/20 04:24:23;;;;;;;20.57;11.87;;;;;;;;;;4957416;28;20289;-75
2021/07/20 04:26:48;;;;;;;20.30;11.37;;;;;;;;;;4958104;28;20199;-78
2021/07/20 04:29:14;;;;;;;18.70;11.43;;;;;;;;;;4957261;28;20200;-77
2021/07/20 04:31:41;;;;;;;17.27;10.50;;;;;;;;;;4969172;28;20203;-77
2021/07/20 04:34:07;;;;;;;19.93;11.53;;;;;;;;;;4959687;28;20225;-77
2021/07/20 04:36:33;;;;;;;20.70;11.83;;;;;;;;;;4980594;28;20181;-78
2021/07/20 04:38:59;;;;;;;19.23;11.70;;;;;;;;;;4959883;28;20260;-77
2021/07/20 04:41:24;;;;;;;20.77;11.60;;;;;;;;;;4976710;28;20689;-77
2021/07/20 04:43:50;;;;;;;22.30;11.45;;;;;;;;;;4962701;28;20291;-78
2021/07/20 04:46:16;;;;;;;18.55;11.55;;;;;;;;;;4957675;28;20238;-79
2021/07/20 04:48:41;;;;;;;20.48;11.15;;;;;;;;;;4958904;28;20287;-77
2021/07/20 04:51:07;;;;;;;20.30;11.48;;;;;;;;;;4964968;28;20275;-78
2021/07/20 04:53:38;;;;;;;17.58;11.25;;;;;;;;;;4958327;28;20250;-76
2021/07/20 04:56:03;;;;;;;17.52;10.93;;;;;;;;;;4961252;28;20215;-77
2021/07/20 04:58:28;;;;;;;16.90;11.65;;;;;;;;;;4970626;28;20185;-76
2021/07/20 05:00:54;;;;;;;20.17;11.73;;;;;;;;;;4971949;28;20184;-76
2021/07/20 05:03:20;;;;;;;17.45;11.40;;;;;;;;;;4970063;28;20212;-77
2021/07/20 05:05:46;;;;;;;19.52;12.05;;;;;;;;;;4980543;28;20185;-76
2021/07/20 05:08:15;;;;;;;15.45;10.93;;;;;;;;;;4983692;28;20183;-76
2021/07/20 05:10:43;;;;;;;19.05;11.00;;;;;;;;;;4984954;28;20181;-76
2021/07/20 05:13:09;;;;;;;23.10;12.52;;;;;;;;;;4983908;28;20196;-76
2021/07/20 05:15:34;;;;;;;17.42;11.32;;;;;;;;;;4991025;28;20200;-77
2021/07/20 05:18:00;;;;;;;16.45;11.00;;;;;;;;;;4991892;28;20188;-76
2021/07/20 05:20:25;;;;;;;16.95;12.27;;;;;;;;;;4987941;28;20419;-76
2021/07/20 05:22:51;;;;;;;19.20;11.15;;;;;;;;;;4986793;28;20208;-76
2021/07/20 05:25:16;;;;;;;16.98;12.05;;;;;;;;;;4987246;28;20185;-76
2021/07/20 05:27:43;;;;;;;19.88;11.77;;;;;;;;;;4976633;28;20184;-77
2021/07/20 05:30:09;;;;;;;19.67;12.38;;;;;;;;;;4971757;28;20177;-77
2021/07/20 05:32:36;;;;;;;17.23;11.93;;;;;;;;;;4966644;28;20200;-76
2021/07/20 05:35:01;;;;;;;18.10;12.15;;;;;;;;;;4964474;28;20797;-77
2021/07/20 05:37:27;;;;;;;18.55;12.50;;;;;;;;;;4971685;28;20188;-78
2021/07/20 05:39:52;;;;;;;17.13;11.85;;;;;;;;;;4963880;28;20641;-77
2021/07/20 05:42:18;;;;;;;20.13;12.40;;;;;;;;;;4963796;28;20201;-77
2021/07/20 05:44:47;;;;;;;16.67;11.23;;;;;;;;;;4961916;28;20208;-78
2021/07/20 05:47:15;;;;;;;17.35;11.65;;;;;;;;;;4960674;28;20188;-78
2021/07/20 05:49:40;;;;;;;15.57;10.18;;;;;;;;;;4974936;28;20184;-77
2021/07/20 05:52:06;;;;;;;16.02;11.38;;;;;;;;;;4966374;28;20212;-78
2021/07/20 05:54:32;;;;;;;12.18;9.00;;;;;;;;;;4961526;28;20204;-78
2021/07/20 05:56:58;;;;;;;13.18;9.30;;;;;;;;;;4959482;28;20290;-75
2021/07/20 05:59:24;;;;;;;14.90;8.93;;;;;;;;;;4974820;28;20189;-76
2021/07/20 06:01:51;;;;;;;14.70;9.93;;;;;;;;;;4962575;28;20200;-78
2021/07/20 06:04:17;;;;;;;11.35;7.85;;;;;;;;;;4961195;28;20189;-77
2021/07/20 06:06:43;;;;;;;15.52;7.85;;;;;;;;;;4966817;28;20180;-79
2021/07/20 06:09:08;;;;;;;13.35;9.70;;;;;;;;;;4959043;28;20688;-78
2021/07/20 06:11:35;;;;;;;11.25;7.75;;;;;;;;;;4964569;28;20208;-78
2021/07/20 06:14:01;;;;;;;11.68;8.05;;;;;;;;;;4962596;28;20195;-78
2021/07/20 06:16:27;;;;;;;11.38;7.65;;;;;;;;;;4961491;28;20180;-77
2021/07/20 06:18:52;;;;;;;10.25;8.05;;;;;;;;;;4961694;28;22163;-77
2021/07/20 06:21:19;;;;;;;9.02;7.60;;;;;;;;;;4960988;28;20200;-79
2021/07/20 06:23:46;;;;;;;12.20;7.97;;;;;;;;;;4962863;28;20283;-79
2021/07/20 06:26:15;;;;;;;10.93;7.32;;;;;;;;;;4961577;28;20554;-77
2021/07/20 06:28:40;;;;;;;8.55;5.88;;;;;;;;;;4958946;28;20646;-76
2021/07/20 06:31:05;;;;;;;10.43;6.78;;;;;;;;;;4957258;28;20250;-76
2021/07/20 06:33:32;;;;;;;9.73;7.15;;;;;;;;;;4960351;28;20218;-75
2021/07/20 06:35:58;;;;;;;8.00;6.13;;;;;;;;;;4960151;28;20188;-77
2021/07/20 06:38:23;;;;;;;7.68;6.10;;;;;;;;;;4961372;28;20188;-78
2021/07/20 06:40:50;;;;;;;8.27;6.40;;;;;;;;;;4960528;28;20188;-78
2021/07/20 06:43:16;;;;;;;7.35;6.25;;;;;;;;;;4960339;28;20698;-77
2021/07/20 06:45:43;;;;;;;6.78;6.03;;;;;;;;;;4959817;28;20247;-76
2021/07/20 06:48:11;;;;;;;7.25;5.80;;;;;;;;;;4977266;28;20211;-76
2021/07/20 06:50:36;;;;;;;7.55;6.03;;;;;;;;;;4959436;28;20180;-77
2021/07/20 06:53:01;;;;;;;6.70;5.53;;;;;;;;;;4962452;28;20212;-77
2021/07/20 06:55:28;;;;;;;7.43;5.95;;;;;;;;;;4958318;28;20204;-78
2021/07/20 06:57:53;;;;;;;6.78;5.90;;;;;;;;;;4963018;28;20184;-76
2021/07/20 07:00:19;;;;;;;8.10;5.97;;;;;;;;;;4957772;28;20668;-75
2021/07/20 07:02:45;;;;;;;9.00;6.28;;;;;;;;;;4961397;28;20204;-76
2021/07/20 07:05:12;;;;;;;6.53;5.50;;;;;;;;;;4959690;28;20239;-77
2021/07/20 07:07:38;;;;;;;7.03;6.00;;;;;;;;;;4963689;28;20193;-77
2021/07/20 07:10:04;;;;;;;7.20;5.43;;;;;;;;;;4958312;28;20187;-75
2021/07/20 07:12:32;;;;;;;9.20;5.45;;;;;;;;;;4961619;28;20199;-78
2021/07/20 07:14:58;;;;;;;6.63;5.45;;;;;;;;;;4960006;28;20298;-76
2021/07/20 07:17:23;;;;;;;7.97;6.18;;;;;;;;;;4957424;28;20181;-76
2021/07/20 07:19:51;;;;;;;6.85;5.32;;;;;;;;;;4956236;28;20187;-77
2021/07/20 07:22:18;;;;;;;7.97;5.47;;;;;;;;;;4977880;23;20270;-77
2021/07/20 07:24:44;;;;;;;6.72;5.30;;;;;;;;;;4986609;28;20653;-77
2021/07/20 07:27:10;;;;;;;7.25;5.07;;;;;;;;;;5000906;28;20230;-77
2021/07/20 07:29:35;;;;;;;9.65;6.03;;;;;;;;;;4986269;28;20179;-76
2021/07/20 07:32:00;;;;;;;6.60;5.30;;;;;;;;;;4985037;28;20765;-76
2021/07/20 07:34:25;;;;;;;6.68;5.78;;;;;;;;;;4977416;28;20924;-76
2021/07/20 07:36:51;;;;;;;6.78;4.82;;;;;;;;;;4979928;28;20728;-76
2021/07/20 07:39:19;;;;;;;10.45;5.45;;;;;;;;;;4977280;28;20246;-76
2021/07/20 07:41:45;;;;;;;6.28;5.57;;;;;;;;;;4974730;28;20575;-76
2021/07/20 07:44:12;;;;;;;6.93;5.43;;;;;;;;;;4977651;28;20211;-75
2021/07/20 07:46:38;;;;;;;7.70;5.63;;;;;;;;;;4991758;28;20194;-76
2021/07/20 07:49:04;;;;;;;8.55;5.60;;;;;;;;;;4975207;28;20665;-76
2021/07/20 07:51:30;;;;;;;7.15;5.47;;;;;;;;;;4979989;28;20211;-75
2021/07/20 07:53:58;;;;;;;7.32;5.32;;;;;;;;;;4971209;28;20207;-76
2021/07/20 07:56:25;;;;;;;5.03;4.53;;;;;;;;;;4974813;28;20242;-75
2021/07/20 07:58:50;;;;;;;7.95;5.25;;;;;;;;;;4976018;28;20541;-76
2021/07/20 08:01:16;;;;;;;5.85;4.72;;;;;;;;;;4975429;28;20178;-75
2021/07/20 08:03:43;;;;;;;6.32;5.43;;;;;;;;;;4974630;28;20813;-76
2021/07/20 08:06:08;;;;;;;9.27;5.53;;;;;;;;;;4981283;28;20194;-75
2021/07/20 08:08:35;;;;;;;5.50;4.85;;;;;;;;;;4976109;28;20429;-76
2021/07/20 08:11:02;;;;;;;7.15;5.80;;;;;;;;;;4976735;28;20203;-76
2021/07/20 08:13:27;;;;;;;6.35;5.22;;;;;;;;;;4981218;28;20239;-76
2021/07/20 08:15:53;;;;;;;8.02;5.65;;;;;;;;;;4978142;28;20211;-76
2021/07/20 08:18:20;;;;;;;5.53;4.70;;;;;;;;;;4976901;28;20532;-76
2021/07/20 08:20:46;;;;;;;8.13;5.32;;;;;;;;;;4968776;28;20175;-76
2021/07/20 08:23:12;;;;;;;8.68;5.80;;;;;;;;;;4976952;28;20207;-75
2021/07/20 08:25:39;;;;;;;6.65;5.13;;;;;;;;;;4976576;28;20191;-76
2021/07/20 08:28:06;;;;;;;6.60;5.38;;;;;;;;;;4976275;28;20202;-76
2021/07/20 08:30:37;;;;;;;6.68;4.95;;;;;;;;;;4978054;28;20187;-75
2021/07/20 08:33:03;;;;;;;7.63;5.75;;;;;;;;;;4977428;28;20207;-77
2021/07/20 08:35:29;;;;;;;7.43;5.72;;;;;;;;;;4975034;28;21750;-76
2021/07/20 08:37:57;;;;;;;6.25;5.32;;;;;;;;;;4976366;28;20202;-76
2021/07/20 08:40:41;;;;;;;7.88;5.85;;;;;;;;;;4990840;28;20646;-76
2021/07/20 08:43:12;;;;;;;7.20;5.22;;;;;;;;;;4978472;28;20231;-75
2021/07/20 08:45:48;;;;;;;6.10;5.22;;;;;;;;;;4992207;28;20191;-75
2021/07/20 08:48:19;;;;;;;8.68;5.57;;;;;;;;;;4976591;28;20735;-78
2021/07/20 08:50:48;;;;;;;7.32;5.20;;;;;;;;;;4978493;28;20209;-76
2021/07/20 08:53:30;;;;;;;6.72;5.50;;;;;;;;;;4979184;28;20196;-75
2021/07/20 08:55:58;;;;;;;6.82;5.38;;;;;;;;;;4976426;28;20973;-75
2021/07/20 08:58:26;;;;;;;6.97;4.93;;;;;;;;;;4974477;28;20179;-75
2021/07/20 09:00:56;;;;;;;6.95;6.25;;;;;;;;;;4977665;28;20183;-75
2021/07/20 09:03:24;;;;;;;7.07;5.68;;;;;;;;;;4975425;28;20294;-75
2021/07/20 09:06:03;;;;;;;9.30;5.32;;;;;;;;;;4972321;28;20192;-76
2021/07/20 09:08:44;;;;;;;8.73;5.05;;;;;;;;;;4983074;28;20321;-76
2021/07/20 09:11:12;;;;;;;9.10;5.65;;;;;;;;;;4980624;28;20191;-76
2021/07/20 09:13:39;;;;;;;7.57;5.70;;;;;;;;;;4986150;28;20226;-75
2021/07/20 09:16:10;;;;;;;5.53;4.97;;;;;;;;;;4982243;28;20704;-75
2021/07/20 09:18:51;;;;;;;7.10;5.45;;;;;;;;;;4974395;28;20600;-75
2021/07/20 09:21:18;;;;;;;5.18;4.68;;;;;;;;;;4976937;28;20247;-76
2021/07/20 09:24:02;;;;;;;7.57;5.80;;;;;;;;;;4977792;28;20217;-76
2021/07/20 09:26:31;;;;;;;6.70;5.43;;;;;;;;;;4973316;28;20210;-75
2021/07/20 09:29:12;;;;;;;5.93;5.32;;;;;;;;;;4973897;28;20322;-75
2021/07/20 09:31:47;;;;;;;7.25;5.35;;;;;;;;;;4978377;28;20195;-75
2021/07/20 09:34:26;;;;;;;7.13;5.30;;;;;;;;;;4977587;28;21820;-75
2021/07/20 09:37:03;;;;;;;7.63;5.45;;;;;;;;;;4980492;28;20231;-75
2021/07/20 09:39:45;;;;;;;7.85;5.40;;;;;;;;;;4979346;28;20187;-75
2021/07/20 09:42:10;;;;;;;7.32;5.68;;;;;;;;;;4981412;28;20795;-76
2021/07/20 09:44:36;;;;;;;6.40;5.43;;;;;;;;;;4976708;28;20183;-76
2021/07/20 09:47:30;;;;;;;6.68;5.22;;;;;;;;;;4974529;28;20238;-76
2021/07/20 09:49:58;;;;;;;7.63;5.20;;;;;;;;;;4932215;28;20197;-75
2021/07/20 09:52:32;;;;;;;7.07;5.50;;;;;;;;;;4977873;28;20211;-75
2021/07/20 09:55:16;;;;;;;6.13;5.00;;;;;;;;;;4976157;28;20221;-76
2021/07/20 09:57:50;;;;;;;5.63;4.88;;;;;;;;;;4975824;28;20184;-76
2021/07/20 10:00:18;;;;;;;7.53;5.28;;;;;;;;;;4973451;28;20171;-76
2021/07/20 10:02:46;;;;;;;6.57;5.95;;;;;;;;;;4977339;28;20216;-76
2021/07/20 10:05:11;;;;;;;7.10;5.30;;;;;;;;;;4976863;28;20290;-76
2021/07/20 10:07:54;;;;;;;5.57;5.07;;;;;;;;;;4986445;28;20340;-76
2021/07/20 10:10:37;;;;;;;6.60;5.70;;;;;;;;;;4978527;28;20275;-76
2021/07/20 10:13:21;;;;;;;5.65;5.05;;;;;;;;;;4988990;28;20775;-76
2021/07/20 10:16:08;;;;;;;5.75;4.93;;;;;;;;;;4985990;28;20204;-76
2021/07/20 10:18:45;;;;;;;7.75;5.47;;;;;;;;;;5000384;28;20599;-75
2021/07/20 10:21:16;;;;;;;7.10;5.07;;;;;;;;;;5004069;28;20175;-76
2021/07/20 10:24:02;;;;;;;6.22;5.60;;;;;;;;;;4989178;28;20211;-76
2021/07/20 10:26:47;;;;;;;6.85;5.47;;;;;;;;;;4987895;28;20735;-76
2021/07/20 10:29:18;;;;;;;6.60;5.13;;;;;;;;;;4981895;28;20189;-76
2021/07/20 10:31:43;;;;;;;5.75;4.90;;;;;;;;;;4993611;28;20179;-76
2021/07/20 10:34:12;;;;;;;8.30;5.73;;;;;;;;;;4989683;28;20206;-76
2021/07/20 10:37:15;;;;;;;8.93;5.88;;;;;;;;;;5000247;28;20266;-76
2021/07/20 10:39:42;;;;;;;6.72;5.53;;;;;;;;;;4939023;29;20713;-76
2021/07/20 10:42:27;;;;;;;10.65;5.97;;;;;;;;;;4949376;29;20205;-76
2021/07/20 10:44:58;;;;;;;6.65;4.88;;;;;;;;;;4969050;28;20182;-76
2021/07/20 10:47:26;;;;;;;6.22;5.32;;;;;;;;;;4991401;28;20180;-78
2021/07/20 10:50:02;;;;;;;7.72;6.18;;;;;;;;;;4987442;28;20214;-78
2021/07/20 10:52:34;;;;;;;6.65;5.95;;;;;;;;;;4986004;28;20700;-77
2021/07/20 10:55:14;;;;;;;6.53;5.40;;;;;;;;;;4990909;28;20215;-79
2021/07/20 10:57:45;;;;;;;6.30;5.65;;;;;;;;;;4984086;28;20184;-77
2021/07/20 11:00:13;;;;;;;6.45;5.38;;;;;;;;;;4987239;28;20227;-78
2021/07/20 11:02:49;;;;;;;8.20;5.63;;;;;;;;;;4995721;28;20211;-78
2021/07/20 11:05:15;;;;;;;7.10;6.18;;;;;;;;;;4993355;28;20259;-77
2021/07/20 11:07:40;;;;;;;7.10;5.60;;;;;;;;;;4988439;28;20270;-77
2021/07/20 11:10:07;;;;;;;6.10;5.50;;;;;;;;;;4990329;28;20184;-77
2021/07/20 11:12:34;;;;;;;7.68;5.90;;;;;;;;;;4989241;28;20207;-77
2021/07/20 11:15:00;;;;;;;6.43;5.43;;;;;;;;;;4987313;28;20250;-79
2021/07/20 11:17:26;;;;;;;6.35;5.47;;;;;;;;;;4986979;28;20551;-77
2021/07/20 11:19:52;;;;;;;7.45;6.10;;;;;;;;;;4991604;28;20183;-77
2021/07/20 11:22:18;;;;;;;6.18;4.97;;;;;;;;;;4982549;28;20220;-76
2021/07/20 11:24:44;;;;;;;10.55;7.30;;;;;;;;;;4981249;28;20299;-78
2021/07/20 11:27:09;;;;;;;7.35;6.50;;;;;;;;;;4988054;28;20176;-77
2021/07/20 11:29:35;;;;;;;8.32;6.22;;;;;;;;;;4986067;28;20266;-77
2021/07/20 11:32:07;;;;;;;7.57;6.65;;;;;;;;;;4989111;28;20350;-77
2021/07/20 11:34:41;;;;;;;8.02;6.00;;;;;;;;;;4986914;28;20211;-78
2021/07/20 11:37:11;;;;;;;7.65;6.30;;;;;;;;;;4986188;28;20669;-78
2021/07/20 11:39:40;;;;;;;7.43;6.72;;;;;;;;;;4987884;28;20225;-77
2021/07/20 11:42:20;;;;;;;8.70;6.15;;;;;;;;;;4987648;28;20191;-78
2021/07/20 11:44:56;;;;;;;8.43;6.45;;;;;;;;;;4984501;28;20210;-78
2021/07/20 11:47:31;;;;;;;6.85;6.13;;;;;;;;;;4986452;28;20180;-77
2021/07/20 11:50:11;;;;;;;9.35;6.78;;;;;;;;;;4983449;28;20586;-77
2021/07/20 11:52:38;;;;;;;6.90;6.20;;;;;;;;;;4976494;28;20295;-78
2021/07/20 11:55:10;;;;;;;7.63;6.05;;;;;;;;;;4984279;28;20207;-78
2021/07/20 11:57:35;;;;;;;9.15;6.10;;;;;;;;;;4997550;28;20176;-78
2021/07/20 12:00:20;;;;;;;10.43;7.22;;;;;;;;;;4986922;28;20186;-77
2021/07/20 12:03:04;;;;;;;9.23;6.50;;;;;;;;;;5002204;28;20257;-78
2021/07/20 12:05:48;;;;;;;9.32;6.75;;;;;;;;;;4994089;28;20208;-78
2021/07/20 12:08:19;;;;;;;8.75;7.10;;;;;;;;;;4986814;28;20261;-77
2021/07/20 12:10:44;;;;;;;8.43;7.00;;;;;;;;;;4983221;28;20653;-77
2021/07/20 12:13:13;;;;;;;9.43;7.32;;;;;;;;;;4994394;28;20210;-77
2021/07/20 12:15:38;;;;;;;8.82;6.63;;;;;;;;;;4985210;28;20245;-77
2021/07/20 12:18:04;;;;;;;8.32;6.82;;;;;;;;;;4980032;28;20235;-76
2021/07/20 12:20:30;;;;;;;10.52;7.53;;;;;;;;;;4989695;28;20340;-76
2021/07/20 12:22:57;;;;;;;8.20;7.40;;;;;;;;;;4990234;28;20207;-78
2021/07/20 12:25:23;;;;;;;8.55;7.22;;;;;;;;;;4984204;28;20180;-78
2021/07/20 12:27:50;;;;;;;7.90;6.82;;;;;;;;;;4980830;28;20186;-79
2021/07/20 12:30:16;;;;;;;6.75;6.03;;;;;;;;;;4997544;28;20170;-77
2021/07/20 12:32:42;;;;;;;7.85;7.05;;;;;;;;;;4988608;28;20246;-78
2021/07/20 12:35:09;;;;;;;8.60;7.15;;;;;;;;;;4990782;28;20207;-78
2021/07/20 12:37:34;;;;;;;7.97;7.00;;;;;;;;;;5002923;28;20258;-76
2021/07/20 12:40:00;;;;;;;9.55;7.25;;;;;;;;;;4987041;28;20203;-78
2021/07/20 12:42:32;;;;;;;9.52;7.32;;;;;;;;;;4990282;28;20199;-77
2021/07/20 12:45:11;;;;;;;8.18;7.35;;;;;;;;;;4994319;28;20186;-78
2021/07/20 12:47:43;;;;;;;7.72;6.88;;;;;;;;;;4982296;28;20179;-77
2021/07/20 12:50:10;;;;;;;7.82;6.97;;;;;;;;;;4992043;28;20179;-77
2021/07/20 12:52:37;;;;;;;10.13;6.93;;;;;;;;;;4996256;28;20580;-77
2021/07/20 12:55:05;;;;;;;9.05;7.65;;;;;;;;;;4990951;28;20225;-76
2021/07/20 12:57:31;;;;;;;12.57;8.35;;;;;;;;;;4984432;28;20227;-77
2021/07/20 12:59:56;;;;;;;8.85;7.35;;;;;;;;;;4981098;28;20620;-77
2021/07/20 13:02:23;;;;;;;10.23;7.67;;;;;;;;;;4988633;28;20203;-77
2021/07/20 13:04:49;;;;;;;9.77;7.88;;;;;;;;;;4989614;28;20435;-77
2021/07/20 13:07:15;;;;;;;9.85;7.88;;;;;;;;;;4985760;28;20176;-77
2021/07/20 13:09:42;;;;;;;8.48;7.53;;;;;;;;;;4994593;28;20179;-78
2021/07/20 13:12:07;;;;;;;9.30;8.13;;;;;;;;;;4982837;28;20235;-77
2021/07/20 13:14:34;;;;;;;8.13;7.33;;;;;;;;;;4996983;28;20235;-77
2021/07/20 13:17:00;;;;;;;8.27;7.43;;;;;;;;;;4987923;28;20211;-77
2021/07/20 13:19:25;;;;;;;8.70;7.80;;;;;;;;;;4992541;28;20180;-77
2021/07/20 13:21:50;;;;;;;8.93;7.23;;;;;;;;;;4988206;28;20199;-76
2021/07/20 13:24:16;;;;;;;11.33;7.67;;;;;;;;;;4985216;28;20221;-75
2021/07/20 13:26:41;;;;;;;8.40;7.25;;;;;;;;;;4991296;28;20755;-75
2021/07/20 13:29:08;;;;;;;9.35;8.43;;;;;;;;;;4982716;28;20233;-75
2021/07/20 13:31:37;;;;;;;10.15;8.10;;;;;;;;;;4983800;28;20233;-76
2021/07/20 13:34:03;;;;;;;8.43;7.38;;;;;;;;;;4984526;28;20203;-76
2021/07/20 13:36:30;;;;;;;9.68;7.93;;;;;;;;;;4978729;28;20232;-76
2021/07/20 13:38:55;;;;;;;10.40;7.40;;;;;;;;;;5002002;28;20221;-76
2021/07/20 13:41:21;;;;;;;8.32;7.38;;;;;;;;;;4993320;28;20179;-76
2021/07/20 13:43:47;;;;;;;9.07;7.57;;;;;;;;;;4986339;28;20208;-76
2021/07/20 13:46:13;;;;;;;8.38;7.47;;;;;;;;;;4991119;28;20207;-76
2021/07/20 13:48:42;;;;;;;9.35;7.57;;;;;;;;;;4993210;28;20187;-76
2021/07/20 13:51:08;;;;;;;9.25;7.43;;;;;;;;;;4993699;28;20668;-76
2021/07/20 13:53:36;;;;;;;8.20;7.38;;;;;;;;;;4998524;28;20199;-75
2021/07/20 13:56:27;;;;;;;9.85;7.40;;;;;;;;;;4989972;28;20215;-75
2021/07/20 13:58:53;;;;;;;8.90;8.00;;;;;;;;;;4972735;28;20878;-75
2021/07/20 14:01:19;;;;;;;9.07;7.55;;;;;;;;;;4983706;28;20263;-75
2021/07/20 14:03:44;;;;;;;9.05;7.55;;;;;;;;;;4993302;28;20293;-76
2021/07/20 14:06:10;;;;;;;10.27;7.65;;;;;;;;;;4983834;28;21908;-76
2021/07/20 14:08:36;;;;;;;9.77;8.80;;;;;;;;;;4991320;28;20242;-75
2021/07/20 14:11:02;;;;;;;10.40;9.07;;;;;;;;;;4983783;28;20227;-75
2021/07/20 14:13:28;;;;;;;10.25;8.27;;;;;;;;;;4989432;28;20210;-76
2021/07/20 14:15:54;;;;;;;10.68;7.90;;;;;;;;;;4982405;28;20207;-75
2021/07/20 14:18:20;;;;;;;9.93;8.55;;;;;;;;;;4993562;28;20535;-74
2021/07/20 14:20:46;;;;;;;9.45;8.13;;;;;;;;;;5003608;28;20179;-75
2021/07/20 14:23:11;;;;;;;13.98;9.55;;;;;;;;;;4993648;28;20199;-75
2021/07/20 14:25:44;;;;;;;10.85;8.75;;;;;;;;;;4986549;28;20196;-75
2021/07/20 14:28:10;;;;;;;9.38;8.13;;;;;;;;;;4990864;28;20663;-75
2021/07/20 14:30:42;;;;;;;9.27;8.23;;;;;;;;;;4997801;28;20183;-76
2021/07/20 14:33:08;;;;;;;10.48;9.35;;;;;;;;;;4987356;28;20198;-76
2021/07/20 14:35:36;;;;;;;8.63;7.18;;;;;;;;;;4989000;28;20202;-75
2021/07/20 14:38:02;;;;;;;9.75;8.75;;;;;;;;;;4986243;28;20171;-76
2021/07/20 14:40:29;;;;;;;11.43;8.90;;;;;;;;;;4990000;28;20182;-76
2021/07/20 14:42:55;;;;;;;9.88;8.40;;;;;;;;;;4987874;28;20204;-74